sensor_id;sensor_type;location;lat;lon;timestamp;P1;durP1;ratioP1;P2;durP2;ratioP2
67721;SDS011;58309;45.292;11.820;2023-02-28T00:00:50;10.98;;;7.72;;
67721;SDS011;58309;45.292;11.820;2023-02-28T00:03:16;9.15;;;7.18;;
67721;SDS011;58309;45.292;11.820;2023-02-28T00:05:42;13.02;;;7.45;;
67721;SDS011;58309;45.292;11.820;2023-02-28T00:08:07;10.35;;;7.95;;
67721;SDS011;58309;45.292;11.820;2023-02-28T00:10:33;9.75;;;7.63;;
67721;SDS011;58309;45.292;11.820;2023-02-28T00:13:03;10.85;;;7.95;;
67721;SDS011;58309;45.292;11.820;2023-02-28T00:15:31;12.13;;;8.18;;
67721;SDS011;58309;45.292;11.820;2023-02-28T00:17:57;15.25;;;8.95;;
67721;SDS011;58309;45.292;11.820;2023-02-28T00:20:23;11.82;;;8.75;;
67721;SDS011;58309;45.292;11.820;2023-02-28T00:22:50;14.32;;;8.43;;
67721;SDS011;58309;45.292;11.820;2023-02-28T00:25:18;9.90;;;7.68;;
67721;SDS011;58309;45.292;11.820;2023-02-28T00:27:45;9.15;;;7.47;;
67721;SDS011;58309;45.292;11.820;2023-02-28T00:30:13;10.77;;;7.75;;
67721;SDS011;58309;45.292;11.820;2023-02-28T00:32:41;11.52;;;7.72;;
67721;SDS011;58309;45.292;11.820;2023-02-28T00:35:07;10.23;;;7.68;;
67721;SDS011;58309;45.292;11.820;2023-02-28T00:37:33;9.80;;;6.63;;
67721;SDS011;58309;45.292;11.820;2023-02-28T00:39:59;11.13;;;7.60;;
67721;SDS011;58309;45.292;11.820;2023-02-28T00:42:24;10.32;;;7.45;;
67721;SDS011;58309;45.292;11.820;2023-02-28T00:44:50;11.75;;;7.57;;
67721;SDS011;58309;45.292;11.820;2023-02-28T00:47:16;11.27;;;7.97;;
67721;SDS011;58309;45.292;11.820;2023-02-28T00:49:41;11.52;;;7.00;;
67721;SDS011;58309;45.292;11.820;2023-02-28T00:52:07;10.80;;;8.32;;
67721;SDS011;58309;45.292;11.820;2023-02-28T00:54:33;11.27;;;8.32;;
67721;SDS011;58309;45.292;11.820;2023-02-28T00:56:58;11.40;;;7.90;;
67721;SDS011;58309;45.292;11.820;2023-02-28T00:59:24;10.40;;;7.60;;
67721;SDS011;58309;45.292;11.820;2023-02-28T01:01:50;13.73;;;8.02;;
67721;SDS011;58309;45.292;11.820;2023-02-28T01:04:16;11.27;;;7.20;;
67721;SDS011;58309;45.292;11.820;2023-02-28T01:06:41;12.77;;;7.15;;
67721;SDS011;58309;45.292;11.820;2023-02-28T01:09:07;10.00;;;7.93;;
67721;SDS011;58309;45.292;11.820;2023-02-28T01:11:33;11.05;;;7.40;;
67721;SDS011;58309;45.292;11.820;2023-02-28T01:13:59;12.80;;;7.85;;
67721;SDS011;58309;45.292;11.820;2023-02-28T01:16:25;11.27;;;7.85;;
67721;SDS011;58309;45.292;11.820;2023-02-28T01:18:50;13.98;;;7.72;;
67721;SDS011;58309;45.292;11.820;2023-02-28T01:21:17;10.63;;;6.70;;
67721;SDS011;58309;45.292;11.820;2023-02-28T01:23:44;13.35;;;7.85;;
67721;SDS011;58309;45.292;11.820;2023-02-28T01:26:11;9.85;;;7.35;;
67721;SDS011;58309;45.292;11.820;2023-02-28T01:28:39;11.98;;;7.28;;
67721;SDS011;58309;45.292;11.820;2023-02-28T01:31:04;10.77;;;7.43;;
67721;SDS011;58309;45.292;11.820;2023-02-28T01:33:31;8.80;;;6.93;;
67721;SDS011;58309;45.292;11.820;2023-02-28T01:36:09;10.82;;;6.80;;
67721;SDS011;58309;45.292;11.820;2023-02-28T01:38:53;9.65;;;7.25;;
67721;SDS011;58309;45.292;11.820;2023-02-28T01:41:20;11.07;;;7.43;;
67721;SDS011;58309;45.292;11.820;2023-02-28T01:46:11;11.15;;;7.97;;
67721;SDS011;58309;45.292;11.820;2023-02-28T01:48:38;13.32;;;7.85;;
67721;SDS011;58309;45.292;11.820;2023-02-28T01:51:15;11.07;;;7.68;;
67721;SDS011;58309;45.292;11.820;2023-02-28T01:53:46;11.52;;;7.60;;
67721;SDS011;58309;45.292;11.820;2023-02-28T01:56:16;8.75;;;7.47;;
67721;SDS011;58309;45.292;11.820;2023-02-28T01:58:47;8.15;;;7.10;;
67721;SDS011;58309;45.292;11.820;2023-02-28T02:01:14;9.38;;;7.05;;
67721;SDS011;58309;45.292;11.820;2023-02-28T02:03:47;10.60;;;7.25;;
67721;SDS011;58309;45.292;11.820;2023-02-28T02:06:20;12.75;;;7.53;;
67721;SDS011;58309;45.292;11.820;2023-02-28T02:08:49;11.07;;;7.68;;
67721;SDS011;58309;45.292;11.820;2023-02-28T02:11:17;9.85;;;7.32;;
67721;SDS011;58309;45.292;11.820;2023-02-28T02:29:59;10.90;;;8.13;;
67721;SDS011;58309;45.292;11.820;2023-02-28T02:40:27;10.02;;;7.03;;
67721;SDS011;58309;45.292;11.820;2023-02-28T02:45:25;8.65;;;6.78;;
67721;SDS011;58309;45.292;11.820;2023-02-28T02:47:54;10.68;;;7.05;;
67721;SDS011;58309;45.292;11.820;2023-02-28T02:50:29;10.77;;;7.10;;
67721;SDS011;58309;45.292;11.820;2023-02-28T02:53:00;10.15;;;7.45;;
67721;SDS011;58309;45.292;11.820;2023-02-28T02:55:28;10.77;;;7.57;;
67721;SDS011;58309;45.292;11.820;2023-02-28T02:57:58;11.30;;;7.40;;
67721;SDS011;58309;45.292;11.820;2023-02-28T03:00:38;9.30;;;7.30;;
67721;SDS011;58309;45.292;11.820;2023-02-28T03:03:15;10.48;;;8.07;;
67721;SDS011;58309;45.292;11.820;2023-02-28T03:05:46;10.45;;;7.10;;
67721;SDS011;58309;45.292;11.820;2023-02-28T03:08:14;10.00;;;6.60;;
67721;SDS011;58309;45.292;11.820;2023-02-28T03:10:41;11.50;;;7.30;;
67721;SDS011;58309;45.292;11.820;2023-02-28T03:13:14;8.95;;;6.28;;
67721;SDS011;58309;45.292;11.820;2023-02-28T03:26:58;9.70;;;7.32;;
67721;SDS011;58309;45.292;11.820;2023-02-28T03:34:36;7.78;;;6.82;;
67721;SDS011;58309;45.292;11.820;2023-02-28T03:37:09;10.02;;;7.10;;
67721;SDS011;58309;45.292;11.820;2023-02-28T03:39:42;9.38;;;6.60;;
67721;SDS011;58309;45.292;11.820;2023-02-28T03:42:15;10.60;;;7.38;;
67721;SDS011;58309;45.292;11.820;2023-02-28T03:44:45;12.75;;;6.80;;
67721;SDS011;58309;45.292;11.820;2023-02-28T03:47:23;9.73;;;7.30;;
67721;SDS011;58309;45.292;11.820;2023-02-28T03:50:01;9.35;;;6.85;;
67721;SDS011;58309;45.292;11.820;2023-02-28T03:52:33;9.85;;;7.15;;
67721;SDS011;58309;45.292;11.820;2023-02-28T03:55:04;10.25;;;7.88;;
67721;SDS011;58309;45.292;11.820;2023-02-28T04:03:03;9.20;;;7.05;;
67721;SDS011;58309;45.292;11.820;2023-02-28T04:05:28;10.30;;;7.57;;
67721;SDS011;58309;45.292;11.820;2023-02-28T04:08:02;10.75;;;7.97;;
67721;SDS011;58309;45.292;11.820;2023-02-28T04:10:32;9.25;;;7.43;;
67721;SDS011;58309;45.292;11.820;2023-02-28T04:12:57;11.18;;;7.63;;
67721;SDS011;58309;45.292;11.820;2023-02-28T04:15:23;8.85;;;7.05;;
67721;SDS011;58309;45.292;11.820;2023-02-28T04:17:49;11.07;;;7.05;;
67721;SDS011;58309;45.292;11.820;2023-02-28T04:20:15;10.68;;;7.10;;
67721;SDS011;58309;45.292;11.820;2023-02-28T04:22:41;9.63;;;7.22;;
67721;SDS011;58309;45.292;11.820;2023-02-28T04:25:07;10.90;;;7.60;;
67721;SDS011;58309;45.292;11.820;2023-02-28T04:27:33;11.00;;;7.70;;
67721;SDS011;58309;45.292;11.820;2023-02-28T04:29:58;9.45;;;7.30;;
67721;SDS011;58309;45.292;11.820;2023-02-28T04:32:24;10.13;;;7.82;;
67721;SDS011;58309;45.292;11.820;2023-02-28T04:34:50;10.63;;;7.68;;
67721;SDS011;58309;45.292;11.820;2023-02-28T04:37:15;14.27;;;7.90;;
67721;SDS011;58309;45.292;11.820;2023-02-28T04:39:41;13.10;;;7.95;;
67721;SDS011;58309;45.292;11.820;2023-02-28T04:42:07;10.90;;;7.63;;
67721;SDS011;58309;45.292;11.820;2023-02-28T04:44:33;11.60;;;8.00;;
67721;SDS011;58309;45.292;11.820;2023-02-28T04:46:58;13.02;;;8.40;;
67721;SDS011;58309;45.292;11.820;2023-02-28T04:49:24;10.13;;;7.63;;
67721;SDS011;58309;45.292;11.820;2023-02-28T04:51:50;11.55;;;8.00;;
67721;SDS011;58309;45.292;11.820;2023-02-28T04:54:15;11.43;;;8.02;;
67721;SDS011;58309;45.292;11.820;2023-02-28T04:56:42;12.15;;;8.52;;
67721;SDS011;58309;45.292;11.820;2023-02-28T04:59:08;13.45;;;8.55;;
67721;SDS011;58309;45.292;11.820;2023-02-28T05:01:33;12.00;;;8.32;;
67721;SDS011;58309;45.292;11.820;2023-02-28T05:04:02;12.02;;;7.97;;
67721;SDS011;58309;45.292;11.820;2023-02-28T05:06:29;11.73;;;7.97;;
67721;SDS011;58309;45.292;11.820;2023-02-28T05:08:57;12.30;;;7.90;;
67721;SDS011;58309;45.292;11.820;2023-02-28T05:11:23;11.63;;;8.20;;
67721;SDS011;58309;45.292;11.820;2023-02-28T05:13:49;11.27;;;7.90;;
67721;SDS011;58309;45.292;11.820;2023-02-28T05:16:15;12.95;;;8.20;;
67721;SDS011;58309;45.292;11.820;2023-02-28T05:18:41;11.70;;;8.07;;
67721;SDS011;58309;45.292;11.820;2023-02-28T05:21:17;16.75;;;8.57;;
67721;SDS011;58309;45.292;11.820;2023-02-28T05:23:49;14.10;;;8.38;;
67721;SDS011;58309;45.292;11.820;2023-02-28T05:26:15;13.05;;;8.55;;
67721;SDS011;58309;45.292;11.820;2023-02-28T05:28:40;12.00;;;8.63;;
67721;SDS011;58309;45.292;11.820;2023-02-28T05:31:06;12.32;;;7.97;;
67721;SDS011;58309;45.292;11.820;2023-02-28T05:33:32;13.52;;;8.60;;
67721;SDS011;58309;45.292;11.820;2023-02-28T05:35:58;10.80;;;7.88;;
67721;SDS011;58309;45.292;11.820;2023-02-28T05:38:23;12.32;;;7.90;;
67721;SDS011;58309;45.292;11.820;2023-02-28T05:40:49;13.23;;;8.48;;
67721;SDS011;58309;45.292;11.820;2023-02-28T05:43:14;12.18;;;8.38;;
67721;SDS011;58309;45.292;11.820;2023-02-28T05:45:40;13.02;;;8.38;;
67721;SDS011;58309;45.292;11.820;2023-02-28T05:48:05;13.70;;;8.60;;
67721;SDS011;58309;45.292;11.820;2023-02-28T05:50:31;15.20;;;10.70;;
67721;SDS011;58309;45.292;11.820;2023-02-28T05:52:56;18.10;;;12.05;;
67721;SDS011;58309;45.292;11.820;2023-02-28T05:55:24;16.20;;;10.95;;
67721;SDS011;58309;45.292;11.820;2023-02-28T05:57:50;17.25;;;12.32;;
67721;SDS011;58309;45.292;11.820;2023-02-28T06:00:16;13.52;;;9.15;;
67721;SDS011;58309;45.292;11.820;2023-02-28T06:02:42;14.70;;;9.55;;
67721;SDS011;58309;45.292;11.820;2023-02-28T06:05:13;15.63;;;10.60;;
67721;SDS011;58309;45.292;11.820;2023-02-28T06:07:39;12.80;;;8.73;;
67721;SDS011;58309;45.292;11.820;2023-02-28T06:10:05;20.25;;;10.13;;
67721;SDS011;58309;45.292;11.820;2023-02-28T06:12:31;16.63;;;9.43;;
67721;SDS011;58309;45.292;11.820;2023-02-28T06:14:57;13.52;;;9.00;;
67721;SDS011;58309;45.292;11.820;2023-02-28T06:17:22;15.85;;;10.73;;
67721;SDS011;58309;45.292;11.820;2023-02-28T06:19:47;13.15;;;9.45;;
67721;SDS011;58309;45.292;11.820;2023-02-28T06:22:13;15.82;;;10.00;;
67721;SDS011;58309;45.292;11.820;2023-02-28T06:24:39;15.02;;;10.38;;
67721;SDS011;58309;45.292;11.820;2023-02-28T06:27:04;15.02;;;10.13;;
67721;SDS011;58309;45.292;11.820;2023-02-28T06:29:31;17.00;;;9.85;;
67721;SDS011;58309;45.292;11.820;2023-02-28T06:31:57;20.25;;;10.40;;
67721;SDS011;58309;45.292;11.820;2023-02-28T06:34:23;13.80;;;9.65;;
67721;SDS011;58309;45.292;11.820;2023-02-28T06:36:50;15.23;;;10.38;;
67721;SDS011;58309;45.292;11.820;2023-02-28T06:39:16;13.75;;;9.50;;
67721;SDS011;58309;45.292;11.820;2023-02-28T06:41:41;14.27;;;9.20;;
67721;SDS011;58309;45.292;11.820;2023-02-28T06:44:14;18.02;;;10.10;;
67721;SDS011;58309;45.292;11.820;2023-02-28T06:46:41;16.30;;;9.75;;
67721;SDS011;58309;45.292;11.820;2023-02-28T06:49:08;14.18;;;9.50;;
67721;SDS011;58309;45.292;11.820;2023-02-28T06:51:35;14.25;;;9.52;;
67721;SDS011;58309;45.292;11.820;2023-02-28T06:54:02;16.38;;;10.05;;
67721;SDS011;58309;45.292;11.820;2023-02-28T06:56:28;12.60;;;8.98;;
67721;SDS011;58309;45.292;11.820;2023-02-28T06:58:53;15.15;;;9.88;;
67721;SDS011;58309;45.292;11.820;2023-02-28T07:01:19;15.10;;;10.02;;
67721;SDS011;58309;45.292;11.820;2023-02-28T07:03:45;14.27;;;9.60;;
67721;SDS011;58309;45.292;11.820;2023-02-28T07:06:11;14.43;;;9.27;;
67721;SDS011;58309;45.292;11.820;2023-02-28T07:08:37;19.20;;;10.82;;
67721;SDS011;58309;45.292;11.820;2023-02-28T07:11:03;17.42;;;10.57;;
67721;SDS011;58309;45.292;11.820;2023-02-28T07:13:28;20.15;;;13.35;;
67721;SDS011;58309;45.292;11.820;2023-02-28T07:15:55;22.75;;;13.15;;
67721;SDS011;58309;45.292;11.820;2023-02-28T07:18:21;17.83;;;11.55;;
67721;SDS011;58309;45.292;11.820;2023-02-28T07:20:47;15.75;;;10.00;;
67721;SDS011;58309;45.292;11.820;2023-02-28T07:23:13;19.15;;;10.55;;
67721;SDS011;58309;45.292;11.820;2023-02-28T07:25:38;15.30;;;10.23;;
67721;SDS011;58309;45.292;11.820;2023-02-28T07:28:04;15.50;;;10.10;;
67721;SDS011;58309;45.292;11.820;2023-02-28T07:30:29;15.75;;;10.50;;
67721;SDS011;58309;45.292;11.820;2023-02-28T07:32:55;14.05;;;9.18;;
67721;SDS011;58309;45.292;11.820;2023-02-28T07:35:21;15.35;;;9.68;;
67721;SDS011;58309;45.292;11.820;2023-02-28T07:37:47;14.70;;;9.07;;
67721;SDS011;58309;45.292;11.820;2023-02-28T07:40:13;15.00;;;9.43;;
67721;SDS011;58309;45.292;11.820;2023-02-28T07:42:39;12.00;;;8.05;;
67721;SDS011;58309;45.292;11.820;2023-02-28T07:45:06;15.80;;;8.60;;
67721;SDS011;58309;45.292;11.820;2023-02-28T07:47:36;15.38;;;8.50;;
67721;SDS011;58309;45.292;11.820;2023-02-28T07:52:32;13.85;;;7.68;;
67721;SDS011;58309;45.292;11.820;2023-02-28T07:54:58;15.48;;;8.23;;
67721;SDS011;58309;45.292;11.820;2023-02-28T07:57:23;13.48;;;8.55;;
67721;SDS011;58309;45.292;11.820;2023-02-28T07:59:49;13.45;;;7.80;;
67721;SDS011;58309;45.292;11.820;2023-02-28T08:02:15;13.23;;;9.02;;
67721;SDS011;58309;45.292;11.820;2023-02-28T08:04:42;12.00;;;8.35;;
67721;SDS011;58309;45.292;11.820;2023-02-28T08:07:08;11.93;;;7.93;;
67721;SDS011;58309;45.292;11.820;2023-02-28T08:09:38;12.20;;;8.27;;
67721;SDS011;58309;45.292;11.820;2023-02-28T08:12:04;12.82;;;7.78;;
67721;SDS011;58309;45.292;11.820;2023-02-28T08:14:30;15.98;;;8.38;;
67721;SDS011;58309;45.292;11.820;2023-02-28T08:16:56;10.77;;;7.65;;
67721;SDS011;58309;45.292;11.820;2023-02-28T08:19:21;11.30;;;8.25;;
67721;SDS011;58309;45.292;11.820;2023-02-28T08:21:47;11.20;;;8.27;;
67721;SDS011;58309;45.292;11.820;2023-02-28T08:24:12;11.90;;;8.07;;
67721;SDS011;58309;45.292;11.820;2023-02-28T08:26:38;11.50;;;8.35;;
67721;SDS011;58309;45.292;11.820;2023-02-28T08:29:03;12.05;;;8.55;;
67721;SDS011;58309;45.292;11.820;2023-02-28T08:31:29;11.63;;;8.18;;
67721;SDS011;58309;45.292;11.820;2023-02-28T08:33:54;10.02;;;7.10;;
67721;SDS011;58309;45.292;11.820;2023-02-28T08:36:24;10.70;;;7.30;;
67721;SDS011;58309;45.292;11.820;2023-02-28T08:38:50;14.98;;;7.88;;
67721;SDS011;58309;45.292;11.820;2023-02-28T08:41:16;9.30;;;6.65;;
67721;SDS011;58309;45.292;11.820;2023-02-28T08:43:42;10.98;;;7.85;;
67721;SDS011;58309;45.292;11.820;2023-02-28T08:46:08;9.35;;;7.57;;
67721;SDS011;58309;45.292;11.820;2023-02-28T08:48:37;11.73;;;6.95;;
67721;SDS011;58309;45.292;11.820;2023-02-28T08:51:04;11.00;;;7.68;;
67721;SDS011;58309;45.292;11.820;2023-02-28T08:53:32;12.38;;;7.45;;
67721;SDS011;58309;45.292;11.820;2023-02-28T08:55:58;13.40;;;8.43;;
67721;SDS011;58309;45.292;11.820;2023-02-28T08:58:27;9.77;;;8.07;;
67721;SDS011;58309;45.292;11.820;2023-02-28T09:00:53;10.98;;;7.72;;
67721;SDS011;58309;45.292;11.820;2023-02-28T09:03:19;9.10;;;6.50;;
67721;SDS011;58309;45.292;11.820;2023-02-28T09:05:55;10.75;;;7.80;;
67721;SDS011;58309;45.292;11.820;2023-02-28T09:08:23;9.00;;;7.05;;
67721;SDS011;58309;45.292;11.820;2023-02-28T09:10:49;7.88;;;6.95;;
67721;SDS011;58309;45.292;11.820;2023-02-28T09:13:15;9.02;;;6.53;;
67721;SDS011;58309;45.292;11.820;2023-02-28T09:15:40;7.45;;;5.78;;
67721;SDS011;58309;45.292;11.820;2023-02-28T09:18:06;7.40;;;6.25;;
67721;SDS011;58309;45.292;11.820;2023-02-28T09:20:31;7.80;;;6.72;;
67721;SDS011;58309;45.292;11.820;2023-02-28T09:22:57;8.60;;;5.75;;
67721;SDS011;58309;45.292;11.820;2023-02-28T09:25:22;12.73;;;6.38;;
67721;SDS011;58309;45.292;11.820;2023-02-28T09:27:48;9.90;;;6.30;;
67721;SDS011;58309;45.292;11.820;2023-02-28T09:30:14;7.07;;;6.32;;
67721;SDS011;58309;45.292;11.820;2023-02-28T09:32:40;8.57;;;6.43;;
67721;SDS011;58309;45.292;11.820;2023-02-28T09:35:05;7.25;;;6.00;;
67721;SDS011;58309;45.292;11.820;2023-02-28T09:37:31;7.95;;;5.70;;
67721;SDS011;58309;45.292;11.820;2023-02-28T09:39:57;8.52;;;6.63;;
67721;SDS011;58309;45.292;11.820;2023-02-28T09:42:31;7.50;;;5.82;;
67721;SDS011;58309;45.292;11.820;2023-02-28T09:44:58;7.47;;;5.95;;
67721;SDS011;58309;45.292;11.820;2023-02-28T09:47:30;7.43;;;6.18;;
67721;SDS011;58309;45.292;11.820;2023-02-28T09:50:01;8.68;;;7.18;;
67721;SDS011;58309;45.292;11.820;2023-02-28T09:52:36;7.63;;;6.13;;
67721;SDS011;58309;45.292;11.820;2023-02-28T09:57:55;8.25;;;6.47;;
67721;SDS011;58309;45.292;11.820;2023-02-28T10:00:28;7.22;;;6.30;;
67721;SDS011;58309;45.292;11.820;2023-02-28T10:08:30;7.95;;;6.22;;
67721;SDS011;58309;45.292;11.820;2023-02-28T10:11:12;9.05;;;5.85;;
67721;SDS011;58309;45.292;11.820;2023-02-28T10:16:35;9.68;;;6.93;;
67721;SDS011;58309;45.292;11.820;2023-02-28T10:19:10;8.18;;;6.35;;
67721;SDS011;58309;45.292;11.820;2023-02-28T10:21:46;10.20;;;6.97;;
67721;SDS011;58309;45.292;11.820;2023-02-28T10:24:32;13.48;;;7.15;;
67721;SDS011;58309;45.292;11.820;2023-02-28T10:27:17;9.43;;;6.70;;
67721;SDS011;58309;45.292;11.820;2023-02-28T10:29:45;9.63;;;7.22;;
67721;SDS011;58309;45.292;11.820;2023-02-28T10:32:14;12.30;;;6.65;;
67721;SDS011;58309;45.292;11.820;2023-02-28T10:34:42;12.25;;;7.43;;
67721;SDS011;58309;45.292;11.820;2023-02-28T10:37:09;9.90;;;6.32;;
67721;SDS011;58309;45.292;11.820;2023-02-28T10:39:44;10.95;;;8.20;;
67721;SDS011;58309;45.292;11.820;2023-02-28T10:42:21;12.40;;;7.55;;
67721;SDS011;58309;45.292;11.820;2023-02-28T10:45:04;9.65;;;6.70;;
67721;SDS011;58309;45.292;11.820;2023-02-28T10:47:30;9.33;;;7.20;;
67721;SDS011;58309;45.292;11.820;2023-02-28T10:49:58;10.25;;;7.07;;
67721;SDS011;58309;45.292;11.820;2023-02-28T10:52:58;11.68;;;7.55;;
67721;SDS011;58309;45.292;11.820;2023-02-28T10:57:45;10.80;;;7.55;;
67721;SDS011;58309;45.292;11.820;2023-02-28T11:00:22;10.25;;;7.18;;
67721;SDS011;58309;45.292;11.820;2023-02-28T11:02:50;11.05;;;7.15;;
67721;SDS011;58309;45.292;11.820;2023-02-28T11:08:03;10.50;;;6.95;;
67721;SDS011;58309;45.292;11.820;2023-02-28T11:10:36;11.98;;;7.18;;
67721;SDS011;58309;45.292;11.820;2023-02-28T11:13:02;10.65;;;7.55;;
67721;SDS011;58309;45.292;11.820;2023-02-28T11:15:29;8.35;;;6.95;;
67721;SDS011;58309;45.292;11.820;2023-02-28T11:18:01;14.00;;;7.93;;
67721;SDS011;58309;45.292;11.820;2023-02-28T11:20:47;10.43;;;6.82;;
67721;SDS011;58309;45.292;11.820;2023-02-28T11:23:18;11.32;;;7.35;;
67721;SDS011;58309;45.292;11.820;2023-02-28T11:25:49;9.65;;;6.53;;
67721;SDS011;58309;45.292;11.820;2023-02-28T11:28:35;9.40;;;7.00;;
67721;SDS011;58309;45.292;11.820;2023-02-28T11:33:57;9.05;;;6.47;;
67721;SDS011;58309;45.292;11.820;2023-02-28T11:36:23;10.55;;;7.43;;
67721;SDS011;58309;45.292;11.820;2023-02-28T11:38:55;11.55;;;7.57;;
67721;SDS011;58309;45.292;11.820;2023-02-28T11:44:43;9.57;;;7.07;;
67721;SDS011;58309;45.292;11.820;2023-02-28T11:53:10;12.95;;;7.53;;
67721;SDS011;58309;45.292;11.820;2023-02-28T11:58:55;9.27;;;7.03;;
67721;SDS011;58309;45.292;11.820;2023-02-28T12:01:58;11.25;;;7.63;;
67721;SDS011;58309;45.292;11.820;2023-02-28T12:26:45;9.73;;;6.75;;
67721;SDS011;58309;45.292;11.820;2023-02-28T12:31:44;10.15;;;6.90;;
67721;SDS011;58309;45.292;11.820;2023-02-28T12:34:34;13.25;;;6.75;;
67721;SDS011;58309;45.292;11.820;2023-02-28T12:37:25;8.82;;;6.47;;
67721;SDS011;58309;45.292;11.820;2023-02-28T12:40:00;8.32;;;6.63;;
67721;SDS011;58309;45.292;11.820;2023-02-28T12:42:34;8.65;;;6.35;;
67721;SDS011;58309;45.292;11.820;2023-02-28T12:45:18;7.43;;;4.85;;
67721;SDS011;58309;45.292;11.820;2023-02-28T12:47:44;9.13;;;5.53;;
67721;SDS011;58309;45.292;11.820;2023-02-28T12:50:15;13.27;;;5.88;;
67721;SDS011;58309;45.292;11.820;2023-02-28T12:55:46;7.22;;;5.13;;
67721;SDS011;58309;45.292;11.820;2023-02-28T13:09:29;6.47;;;4.82;;
67721;SDS011;58309;45.292;11.820;2023-02-28T13:11:55;9.68;;;5.57;;
67721;SDS011;58309;45.292;11.820;2023-02-28T13:16:59;13.55;;;6.32;;
67721;SDS011;58309;45.292;11.820;2023-02-28T13:19:28;8.55;;;6.00;;
67721;SDS011;58309;45.292;11.820;2023-02-28T13:21:56;12.63;;;5.57;;
67721;SDS011;58309;45.292;11.820;2023-02-28T13:24:56;10.38;;;6.47;;
67721;SDS011;58309;45.292;11.820;2023-02-28T13:27:24;9.07;;;6.03;;
67721;SDS011;58309;45.292;11.820;2023-02-28T13:29:58;9.73;;;6.05;;
67721;SDS011;58309;45.292;11.820;2023-02-28T13:39:48;10.45;;;6.72;;
67721;SDS011;58309;45.292;11.820;2023-02-28T13:47:43;11.30;;;6.57;;
67721;SDS011;58309;45.292;11.820;2023-02-28T13:50:19;9.98;;;5.20;;
67721;SDS011;58309;45.292;11.820;2023-02-28T14:06:38;10.93;;;6.43;;
67721;SDS011;58309;45.292;11.820;2023-02-28T14:11:45;8.15;;;5.63;;
67721;SDS011;58309;45.292;11.820;2023-02-28T14:17:15;9.00;;;5.55;;
67721;SDS011;58309;45.292;11.820;2023-02-28T14:19:43;10.27;;;5.53;;
67721;SDS011;58309;45.292;11.820;2023-02-28T14:36:26;7.60;;;5.43;;
67721;SDS011;58309;45.292;11.820;2023-02-28T14:39:01;10.00;;;5.70;;
67721;SDS011;58309;45.292;11.820;2023-02-28T14:41:36;10.70;;;5.72;;
67721;SDS011;58309;45.292;11.820;2023-02-28T14:46:46;8.88;;;6.30;;
67721;SDS011;58309;45.292;11.820;2023-02-28T14:51:42;7.25;;;5.50;;
67721;SDS011;58309;45.292;11.820;2023-02-28T14:54:12;9.75;;;5.85;;
67721;SDS011;58309;45.292;11.820;2023-02-28T14:56:40;7.45;;;5.60;;
67721;SDS011;58309;45.292;11.820;2023-02-28T14:59:18;8.38;;;5.63;;
67721;SDS011;58309;45.292;11.820;2023-02-28T15:01:49;13.20;;;5.75;;
67721;SDS011;58309;45.292;11.820;2023-02-28T15:04:24;10.70;;;5.63;;
67721;SDS011;58309;45.292;11.820;2023-02-28T15:07:12;7.95;;;5.45;;
67721;SDS011;58309;45.292;11.820;2023-02-28T15:09:39;9.88;;;5.53;;
67721;SDS011;58309;45.292;11.820;2023-02-28T15:12:05;8.73;;;5.90;;
67721;SDS011;58309;45.292;11.820;2023-02-28T15:14:32;6.93;;;5.32;;
67721;SDS011;58309;45.292;11.820;2023-02-28T15:17:08;10.15;;;5.72;;
67721;SDS011;58309;45.292;11.820;2023-02-28T15:19:42;11.55;;;5.57;;
67721;SDS011;58309;45.292;11.820;2023-02-28T15:22:13;10.43;;;5.75;;
67721;SDS011;58309;45.292;11.820;2023-02-28T15:27:16;10.10;;;5.95;;
67721;SDS011;58309;45.292;11.820;2023-02-28T15:29:48;10.48;;;5.47;;
67721;SDS011;58309;45.292;11.820;2023-02-28T15:34:53;10.15;;;5.97;;
67721;SDS011;58309;45.292;11.820;2023-02-28T15:40:28;11.18;;;6.75;;
67721;SDS011;58309;45.292;11.820;2023-02-28T15:43:02;9.38;;;6.28;;
67721;SDS011;58309;45.292;11.820;2023-02-28T15:45:36;13.15;;;6.93;;
67721;SDS011;58309;45.292;11.820;2023-02-28T15:48:20;9.30;;;5.88;;
67721;SDS011;58309;45.292;11.820;2023-02-28T15:50:50;12.20;;;5.47;;
67721;SDS011;58309;45.292;11.820;2023-02-28T15:53:19;10.27;;;6.38;;
67721;SDS011;58309;45.292;11.820;2023-02-28T15:55:55;11.50;;;6.43;;
67721;SDS011;58309;45.292;11.820;2023-02-28T15:58:24;14.95;;;7.65;;
67721;SDS011;58309;45.292;11.820;2023-02-28T16:01:01;16.58;;;9.43;;
67721;SDS011;58309;45.292;11.820;2023-02-28T16:03:39;14.82;;;9.65;;
67721;SDS011;58309;45.292;11.820;2023-02-28T16:06:26;18.95;;;9.82;;
67721;SDS011;58309;45.292;11.820;2023-02-28T16:08:59;17.13;;;9.80;;
67721;SDS011;58309;45.292;11.820;2023-02-28T16:11:25;17.15;;;8.93;;
67721;SDS011;58309;45.292;11.820;2023-02-28T16:13:51;12.93;;;7.75;;
67721;SDS011;58309;45.292;11.820;2023-02-28T16:16:18;10.80;;;6.88;;
67721;SDS011;58309;45.292;11.820;2023-02-28T16:18:46;11.25;;;6.57;;
67721;SDS011;58309;45.292;11.820;2023-02-28T16:21:11;12.77;;;7.60;;
67721;SDS011;58309;45.292;11.820;2023-02-28T16:23:37;13.10;;;6.50;;
67721;SDS011;58309;45.292;11.820;2023-02-28T16:26:03;15.77;;;7.90;;
67721;SDS011;58309;45.292;11.820;2023-02-28T16:28:30;9.02;;;6.25;;
67721;SDS011;58309;45.292;11.820;2023-02-28T16:31:02;10.93;;;7.07;;
67721;SDS011;58309;45.292;11.820;2023-02-28T16:33:30;12.57;;;7.25;;
67721;SDS011;58309;45.292;11.820;2023-02-28T16:35:56;14.45;;;8.57;;
67721;SDS011;58309;45.292;11.820;2023-02-28T16:38:22;16.38;;;8.80;;
67721;SDS011;58309;45.292;11.820;2023-02-28T16:40:50;16.17;;;8.98;;
67721;SDS011;58309;45.292;11.820;2023-02-28T16:43:22;20.27;;;9.20;;
67721;SDS011;58309;45.292;11.820;2023-02-28T16:45:54;15.18;;;8.73;;
67721;SDS011;58309;45.292;11.820;2023-02-28T16:48:21;13.63;;;8.00;;
67721;SDS011;58309;45.292;11.820;2023-02-28T16:50:47;14.15;;;7.70;;
67721;SDS011;58309;45.292;11.820;2023-02-28T16:53:12;13.80;;;7.47;;
67721;SDS011;58309;45.292;11.820;2023-02-28T16:55:38;14.75;;;7.57;;
67721;SDS011;58309;45.292;11.820;2023-02-28T16:58:04;15.40;;;7.90;;
67721;SDS011;58309;45.292;11.820;2023-02-28T17:00:30;13.57;;;7.57;;
67721;SDS011;58309;45.292;11.820;2023-02-28T17:02:57;14.95;;;8.00;;
67721;SDS011;58309;45.292;11.820;2023-02-28T17:05:24;16.50;;;7.80;;
67721;SDS011;58309;45.292;11.820;2023-02-28T17:07:51;20.25;;;8.40;;
67721;SDS011;58309;45.292;11.820;2023-02-28T17:10:21;16.90;;;8.02;;
67721;SDS011;58309;45.292;11.820;2023-02-28T17:12:49;17.27;;;9.40;;
67721;SDS011;58309;45.292;11.820;2023-02-28T17:15:15;19.08;;;9.57;;
67721;SDS011;58309;45.292;11.820;2023-02-28T17:17:43;16.63;;;9.25;;
67721;SDS011;58309;45.292;11.820;2023-02-28T17:20:19;18.42;;;9.38;;
67721;SDS011;58309;45.292;11.820;2023-02-28T17:22:49;17.90;;;9.20;;
67721;SDS011;58309;45.292;11.820;2023-02-28T17:25:16;19.40;;;9.45;;
67721;SDS011;58309;45.292;11.820;2023-02-28T17:27:41;15.75;;;9.70;;
67721;SDS011;58309;45.292;11.820;2023-02-28T17:32:40;19.45;;;10.45;;
67721;SDS011;58309;45.292;11.820;2023-02-28T17:35:06;18.00;;;9.43;;
67721;SDS011;58309;45.292;11.820;2023-02-28T17:37:32;18.60;;;10.27;;
67721;SDS011;58309;45.292;11.820;2023-02-28T17:39:58;22.23;;;10.60;;
67721;SDS011;58309;45.292;11.820;2023-02-28T17:42:23;22.65;;;11.07;;